Time;durP1;ratioP1;P1;durP2;ratioP2;P2;SDS_P1;SDS_P2;PMS_P1;PMS_P2;Temp;Humidity;BMP_temperature;BMP_pressure;BME280_temperature;BME280_humidity;BME280_pressure;Samples;Min_cycle;Max_cycle;Signal;HPM_P1;HPM_P2
2022/07/16 00:03:36;;;;;;;3.95;1.38;;;27.70;57.30;;;;;;5066532;28;20377;-79
2022/07/16 00:06:05;;;;;;;2.10;1.20;;;27.70;57.80;;;;;;5062990;28;21220;-81
2022/07/16 00:08:34;;;;;;;2.33;1.30;;;27.70;57.60;;;;;;5061051;28;20194;-82
2022/07/16 00:11:02;;;;;;;2.58;1.48;;;27.60;57.50;;;;;;5052951;28;20190;-81
2022/07/16 00:13:32;;;;;;;3.13;1.40;;;27.70;57.60;;;;;;5056282;28;20281;-84
2022/07/16 00:16:01;;;;;;;6.07;1.52;;;27.60;57.80;;;;;;5065480;28;20209;-79
2022/07/16 00:21:16;;;;;;;3.88;1.65;;;27.60;57.90;;;;;;5063736;28;20920;-81
2022/07/16 00:23:44;;;;;;;3.83;1.77;;;27.60;58.10;;;;;;5057121;28;20214;-79
2022/07/16 00:26:12;;;;;;;4.15;1.55;;;27.50;57.80;;;;;;5068163;28;20190;-80
2022/07/16 00:28:42;;;;;;;2.75;1.50;;;27.50;58.40;;;;;;5070420;28;20190;-77
2022/07/16 00:31:11;;;;;;;4.07;1.85;;;27.50;58.00;;;;;;5067877;28;20290;-81
2022/07/16 00:33:40;;;;;;;3.65;1.42;;;27.50;58.10;;;;;;5066102;28;20201;-79
2022/07/16 00:36:08;;;;;;;2.25;1.30;;;27.50;58.10;;;;;;5056741;28;20296;-80
2022/07/16 00:38:37;;;;;;;3.22;1.35;;;27.40;58.40;;;;;;5068628;28;20197;-80
2022/07/16 00:41:05;;;;;;;3.70;1.50;;;27.40;58.50;;;;;;5047857;28;20205;-83
2022/07/16 00:43:47;;;;;;;6.28;1.70;;;27.30;58.90;;;;;;5065200;28;20221;-81
2022/07/16 00:46:16;;;;;;;3.25;1.40;;;27.30;58.70;;;;;;5062418;28;20191;-78
2022/07/16 00:48:45;;;;;;;4.60;1.25;;;27.40;58.80;;;;;;5066046;28;20636;-81
2022/07/16 00:51:14;;;;;;;4.53;1.27;;;27.40;58.60;;;;;;5060048;28;20215;-79
2022/07/16 00:53:44;;;;;;;7.65;1.42;;;27.30;58.60;;;;;;5064599;28;20268;-79
2022/07/16 00:56:14;;;;;;;6.68;1.80;;;27.30;58.70;;;;;;5053454;28;20244;-81
2022/07/16 00:58:44;;;;;;;3.72;1.67;;;27.30;58.80;;;;;;5065903;28;20289;-81
2022/07/16 01:01:14;;;;;;;3.40;1.60;;;27.30;58.90;;;;;;5066201;28;20202;-81
2022/07/16 01:03:44;;;;;;;6.00;1.63;;;27.30;58.70;;;;;;5061715;28;20743;-81
2022/07/16 01:06:14;;;;;;;4.45;1.42;;;27.30;58.90;;;;;;5054866;28;20355;-81
2022/07/16 01:08:45;;;;;;;1.85;1.30;;;27.30;58.90;;;;;;5053215;28;20596;-81
2022/07/16 01:11:16;;;;;;;2.85;1.50;;;27.30;59.20;;;;;;5062414;28;20202;-81
2022/07/16 01:13:47;;;;;;;2.05;1.63;;;27.30;59.10;;;;;;5056528;28;20236;-82
2022/07/16 01:16:18;;;;;;;4.00;1.20;;;27.20;59.10;;;;;;5045706;28;20575;-80
2022/07/16 01:18:48;;;;;;;3.17;1.70;;;27.30;59.00;;;;;;5055619;28;20190;-82
2022/07/16 01:21:17;;;;;;;4.80;1.52;;;27.20;59.10;;;;;;5067094;28;20219;-81
2022/07/16 01:23:49;;;;;;;3.63;1.60;;;27.20;59.60;;;;;;5064494;28;21165;-80
2022/07/16 01:26:18;;;;;;;3.63;1.40;;;27.20;59.20;;;;;;5063482;28;20190;-81
2022/07/16 01:28:46;;;;;;;4.70;1.23;;;27.20;59.40;;;;;;5057560;28;20206;-82
2022/07/16 01:31:15;;;;;;;2.55;1.55;;;27.20;59.30;;;;;;5056111;28;20195;-82
2022/07/16 01:33:44;;;;;;;3.05;1.30;;;27.20;59.40;;;;;;5061921;28;20206;-80
2022/07/16 01:36:32;;;;;;;2.88;1.77;;;27.20;59.40;;;;;;5062837;28;20201;-80
2022/07/16 01:39:02;;;;;;;2.65;1.60;;;27.20;59.50;;;;;;5048430;28;20205;-84
2022/07/16 01:41:31;;;;;;;2.67;1.38;;;27.10;59.50;;;;;;5056649;28;20205;-84
2022/07/16 01:43:59;;;;;;;2.75;1.40;;;27.10;59.50;;;;;;5062630;28;20221;-79
2022/07/16 01:46:28;;;;;;;2.65;1.58;;;27.10;59.50;;;;;;5055453;28;20206;-82
2022/07/16 01:48:56;;;;;;;2.08;1.40;;;27.10;59.70;;;;;;5060042;28;20202;-83
2022/07/16 01:51:25;;;;;;;6.60;1.90;;;27.10;59.90;;;;;;5062830;28;20197;-82
2022/07/16 01:53:53;;;;;;;2.60;1.40;;;27.10;59.80;;;;;;5056138;28;20212;-80
2022/07/16 01:56:23;;;;;;;7.00;1.52;;;27.10;60.00;;;;;;5063367;28;20200;-81
2022/07/16 01:58:52;;;;;;;2.72;1.63;;;27.00;60.10;;;;;;5064347;28;20285;-80
2022/07/16 02:01:20;;;;;;;2.72;1.50;;;27.10;59.90;;;;;;5056742;28;20201;-82
2022/07/16 02:03:49;;;;;;;3.63;1.67;;;27.00;59.80;;;;;;5057501;28;20683;-80
2022/07/16 02:06:20;;;;;;;3.30;1.60;;;27.00;59.80;;;;;;5057897;28;20198;-83
2022/07/16 02:08:49;;;;;;;1.77;1.30;;;27.00;59.90;;;;;;5058555;28;20270;-81
2022/07/16 02:11:17;;;;;;;2.75;1.90;;;27.00;60.10;;;;;;5067230;28;20201;-79
2022/07/16 02:13:47;;;;;;;3.95;1.83;;;27.00;60.20;;;;;;5051722;28;20206;-80
2022/07/16 02:16:16;;;;;;;7.13;2.10;;;27.00;60.10;;;;;;5063622;28;20242;-80
2022/07/16 02:18:45;;;;;;;2.58;1.42;;;27.00;60.00;;;;;;5054663;28;20225;-79
2022/07/16 02:21:13;;;;;;;3.53;1.73;;;27.00;60.00;;;;;;5052959;28;20199;-81
2022/07/16 02:23:42;;;;;;;6.40;1.70;;;27.00;60.10;;;;;;5061714;28;20220;-82
2022/07/16 02:26:10;;;;;;;3.28;1.70;;;27.00;60.50;;;;;;5053596;28;20218;-82
2022/07/16 02:28:39;;;;;;;6.50;1.75;;;26.90;60.60;;;;;;5050341;28;20191;-80
2022/07/16 02:31:09;;;;;;;2.85;1.73;;;26.90;60.30;;;;;;5061490;28;20198;-79
2022/07/16 02:33:37;;;;;;;2.58;1.67;;;26.90;60.80;;;;;;5055454;28;20187;-81
2022/07/16 02:36:07;;;;;;;4.68;1.63;;;26.90;60.90;;;;;;5069868;28;20194;-79
2022/07/16 02:38:36;;;;;;;3.17;1.88;;;26.90;61.30;;;;;;5054000;28;20191;-79
2022/07/16 02:41:04;;;;;;;7.72;2.00;;;26.80;61.40;;;;;;5072831;28;21147;-81
2022/07/16 02:43:33;;;;;;;2.38;1.77;;;26.80;61.20;;;;;;5053696;28;20211;-81
2022/07/16 02:46:01;;;;;;;6.35;1.63;;;26.70;61.20;;;;;;5061513;28;20229;-81
2022/07/16 02:48:31;;;;;;;2.92;1.80;;;26.70;61.40;;;;;;5055240;28;20201;-82
2022/07/16 02:51:00;;;;;;;3.60;1.65;;;26.70;61.30;;;;;;5056005;28;20190;-80
2022/07/16 02:53:28;;;;;;;2.42;1.70;;;26.70;61.40;;;;;;5057891;28;20195;-82
2022/07/16 02:55:56;;;;;;;6.55;1.75;;;26.70;61.40;;;;;;5054021;28;20191;-80
2022/07/16 02:58:25;;;;;;;4.82;1.73;;;26.60;61.30;;;;;;5047559;28;20191;-79
2022/07/16 03:00:54;;;;;;;2.95;1.95;;;26.60;61.40;;;;;;5058251;28;21005;-80
2022/07/16 03:03:22;;;;;;;3.38;1.63;;;26.50;61.80;;;;;;5052789;28;20236;-80
2022/07/16 03:05:52;;;;;;;5.68;1.92;;;26.60;62.10;;;;;;5061922;28;20194;-80
2022/07/16 03:08:21;;;;;;;2.42;1.80;;;26.50;62.10;;;;;;5058608;28;20308;-81
2022/07/16 03:10:49;;;;;;;2.75;1.60;;;26.50;62.10;;;;;;5054238;28;20197;-80
2022/07/16 03:13:18;;;;;;;5.15;1.83;;;26.50;61.90;;;;;;5061954;28;20197;-81
2022/07/16 03:15:46;;;;;;;3.63;1.60;;;26.50;62.10;;;;;;5059262;28;20198;-82
2022/07/16 03:18:15;;;;;;;4.13;1.67;;;26.40;62.30;;;;;;5054430;28;20194;-83
2022/07/16 03:20:43;;;;;;;2.42;1.70;;;26.50;62.40;;;;;;5051324;28;20928;-80
2022/07/16 03:23:13;;;;;;;2.70;1.70;;;26.50;62.40;;;;;;5056956;28;20973;-81
2022/07/16 03:25:42;;;;;;;3.28;1.90;;;26.50;62.30;;;;;;5055390;28;20197;-80
2022/07/16 03:28:10;;;;;;;3.78;1.75;;;26.50;62.40;;;;;;5057587;28;20198;-81
2022/07/16 03:30:39;;;;;;;3.83;1.70;;;26.50;62.30;;;;;;5049415;28;20190;-82
2022/07/16 03:33:07;;;;;;;1.98;1.50;;;26.50;62.40;;;;;;5055431;28;20199;-79
2022/07/16 03:35:36;;;;;;;3.70;2.13;;;26.50;62.50;;;;;;5048634;28;20220;-80
2022/07/16 03:40:52;;;;;;;2.20;1.42;;;26.50;63.00;;;;;;5051006;28;20213;-81
2022/07/16 03:43:20;;;;;;;2.85;1.60;;;26.50;63.10;;;;;;5057740;28;20186;-78
2022/07/16 03:45:48;;;;;;;2.80;2.05;;;26.50;63.40;;;;;;5049470;28;20225;-81
2022/07/16 03:48:17;;;;;;;3.25;1.67;;;26.50;63.20;;;;;;5062028;28;20205;-79
2022/07/16 03:50:45;;;;;;;3.05;1.73;;;26.50;63.50;;;;;;5050410;28;20189;-81
2022/07/16 03:53:14;;;;;;;5.22;1.77;;;26.50;63.40;;;;;;5056459;28;20206;-81
2022/07/16 03:55:42;;;;;;;3.53;1.92;;;26.50;64.40;;;;;;5065150;28;20285;-81
2022/07/16 03:58:12;;;;;;;7.28;1.92;;;26.50;63.60;;;;;;5057338;28;20198;-80
2022/07/16 04:00:41;;;;;;;2.22;1.48;;;26.50;63.50;;;;;;5059874;28;20194;-81
2022/07/16 04:03:09;;;;;;;3.33;1.85;;;26.60;63.60;;;;;;5052879;28;20201;-81
2022/07/16 04:05:38;;;;;;;2.70;1.73;;;26.60;63.80;;;;;;5055253;28;20810;-81
2022/07/16 04:08:06;;;;;;;3.17;1.70;;;26.60;64.10;;;;;;5064296;28;20208;-81
2022/07/16 04:10:35;;;;;;;3.53;2.05;;;26.60;63.90;;;;;;5053892;28;20191;-82
2022/07/16 04:13:03;;;;;;;3.97;1.70;;;26.60;63.80;;;;;;5047204;28;20205;-83
2022/07/16 04:15:33;;;;;;;6.40;1.85;;;26.70;63.70;;;;;;5051694;28;20202;-80
2022/07/16 04:18:02;;;;;;;2.70;1.98;;;26.70;63.80;;;;;;5055364;28;20187;-83
2022/07/16 04:20:31;;;;;;;2.58;1.80;;;26.70;63.70;;;;;;5062411;28;20205;-81
2022/07/16 04:22:59;;;;;;;4.47;1.65;;;26.80;63.80;;;;;;5056260;28;20264;-82
2022/07/16 04:25:30;;;;;;;4.05;1.70;;;26.80;63.70;;;;;;5059605;28;20213;-78
2022/07/16 04:27:58;;;;;;;3.47;1.70;;;26.80;63.40;;;;;;5062481;28;20198;-81
2022/07/16 04:30:27;;;;;;;8.90;1.55;;;26.80;63.40;;;;;;5046814;28;20315;-80
2022/07/16 04:32:57;;;;;;;3.15;1.85;;;26.90;63.30;;;;;;5061120;28;20287;-81
2022/07/16 04:35:25;;;;;;;2.35;1.55;;;27.00;63.20;;;;;;5052869;28;20208;-80
2022/07/16 04:37:54;;;;;;;2.97;1.88;;;27.00;63.00;;;;;;5051068;28;20223;-82
2022/07/16 04:40:22;;;;;;;3.45;1.52;;;27.00;62.90;;;;;;5050562;28;20207;-83
2022/07/16 04:42:50;;;;;;;2.17;1.55;;;27.10;62.80;;;;;;5065594;28;20233;-79
2022/07/16 04:45:19;;;;;;;5.47;1.85;;;27.10;62.60;;;;;;5060033;28;20894;-79
2022/07/16 04:47:47;;;;;;;5.05;1.80;;;27.10;62.30;;;;;;5058026;28;20191;-81
2022/07/16 04:50:17;;;;;;;5.93;1.55;;;27.10;62.20;;;;;;5057650;28;20535;-84
2022/07/16 04:52:54;;;;;;;3.70;1.85;;;27.10;61.90;;;;;;5051953;28;20199;-83
2022/07/16 04:55:22;;;;;;;1.58;1.38;;;27.20;62.10;;;;;;5059917;28;20182;-82
2022/07/16 04:57:51;;;;;;;4.03;1.50;;;27.20;62.00;;;;;;5065754;28;20886;-81
2022/07/16 05:00:25;;;;;;;3.22;1.45;;;27.30;62.00;;;;;;5060121;28;20186;-77
2022/07/16 05:02:57;;;;;;;4.75;1.95;;;27.30;61.90;;;;;;5062535;28;20420;-81
2022/07/16 05:05:31;;;;;;;1.73;1.33;;;27.30;61.70;;;;;;5057101;28;20214;-79
2022/07/16 05:08:00;;;;;;;4.05;1.65;;;27.40;61.50;;;;;;5064347;28;20186;-80
2022/07/16 05:10:29;;;;;;;4.82;1.60;;;27.40;61.30;;;;;;5065661;28;20285;-78
2022/07/16 05:12:58;;;;;;;2.33;1.83;;;27.40;61.20;;;;;;5064194;28;20190;-79
2022/07/16 05:15:28;;;;;;;4.15;1.58;;;27.50;61.30;;;;;;5061328;28;20853;-82
2022/07/16 05:17:56;;;;;;;3.00;1.30;;;27.50;61.20;;;;;;5061274;28;20203;-80
2022/07/16 05:20:25;;;;;;;3.25;1.60;;;27.50;61.10;;;;;;5061620;28;20199;-82
2022/07/16 05:22:55;;;;;;;2.92;1.50;;;27.50;61.10;;;;;;5072139;28;20195;-80
2022/07/16 05:25:25;;;;;;;2.33;1.65;;;27.60;61.00;;;;;;5066015;28;21133;-80
2022/07/16 05:27:54;;;;;;;3.97;2.08;;;27.60;60.80;;;;;;5067021;28;20194;-81
2022/07/16 05:30:22;;;;;;;2.90;1.60;;;27.70;60.70;;;;;;5063565;28;20190;-83
2022/07/16 05:32:51;;;;;;;6.68;1.80;;;27.70;60.60;;;;;;5065256;28;20187;-78
2022/07/16 05:35:20;;;;;;;2.97;1.77;;;27.80;60.60;;;;;;5066179;28;20190;-79
2022/07/16 05:37:48;;;;;;;11.63;2.03;;;27.80;60.30;;;;;;5066335;28;20212;-81
2022/07/16 05:40:18;;;;;;;3.63;1.58;;;27.80;60.00;;;;;;5061202;28;20662;-80
2022/07/16 05:42:47;;;;;;;4.10;1.63;;;27.90;59.90;;;;;;5057736;28;20234;-80
2022/07/16 05:45:17;;;;;;;4.60;1.50;;;28.00;59.80;;;;;;5059470;28;20226;-80
2022/07/16 05:47:45;;;;;;;4.65;1.75;;;28.00;59.70;;;;;;5059801;28;20720;-79
2022/07/16 05:50:14;;;;;;;4.00;1.50;;;28.10;59.60;;;;;;5057777;28;20199;-81
2022/07/16 05:52:43;;;;;;;2.47;1.73;;;28.20;59.60;;;;;;5058377;28;20214;-80
2022/07/16 05:55:11;;;;;;;4.30;1.50;;;28.20;59.50;;;;;;5064228;28;20224;-79
2022/07/16 05:57:42;;;;;;;2.55;1.45;;;28.30;59.20;;;;;;5061045;28;20200;-78
2022/07/16 06:00:12;;;;;;;5.35;1.65;;;28.30;59.10;;;;;;5060981;28;20223;-80
2022/07/16 06:02:42;;;;;;;2.65;1.67;;;28.30;58.60;;;;;;5056992;28;20201;-79
2022/07/16 06:05:11;;;;;;;9.57;1.58;;;28.40;58.60;;;;;;5061057;28;20751;-79
2022/07/16 06:07:40;;;;;;;2.95;1.27;;;28.40;58.30;;;;;;5067254;28;20186;-79
2022/07/16 06:10:09;;;;;;;5.35;1.60;;;28.40;58.30;;;;;;5064105;28;20201;-78
2022/07/16 06:12:38;;;;;;;3.22;1.80;;;28.40;58.60;;;;;;5056528;28;20287;-79
2022/07/16 06:15:10;;;;;;;5.82;1.23;;;28.40;57.90;;;;;;5064765;28;20305;-78
2022/07/16 06:17:39;;;;;;;1.90;1.35;;;28.50;57.90;;;;;;5065330;28;20828;-79
2022/07/16 06:20:10;;;;;;;5.40;1.40;;;28.60;57.80;;;;;;5066248;28;20198;-78
2022/07/16 06:22:38;;;;;;;3.80;1.40;;;28.60;57.50;;;;;;5066180;28;20223;-77
2022/07/16 06:25:12;;;;;;;2.15;1.25;;;28.70;57.60;;;;;;5062852;28;20298;-78
2022/07/16 06:27:43;;;;;;;3.25;1.40;;;28.70;56.90;;;;;;5063967;28;20647;-79
2022/07/16 06:30:14;;;;;;;3.05;1.80;;;28.70;56.90;;;;;;5069114;28;20232;-78
2022/07/16 06:32:43;;;;;;;8.10;1.63;;;28.80;56.50;;;;;;5062196;28;20181;-79
2022/07/16 06:35:11;;;;;;;2.78;1.60;;;28.80;56.40;;;;;;5060053;28;20199;-79
2022/07/16 06:37:40;;;;;;;5.88;1.65;;;28.90;56.70;;;;;;5062145;28;20574;-78
2022/07/16 06:40:09;;;;;;;3.03;1.65;;;29.00;56.80;;;;;;5062754;28;20205;-78
2022/07/16 06:42:38;;;;;;;3.78;1.48;;;29.00;56.70;;;;;;5071499;28;20605;-79
2022/07/16 06:45:07;;;;;;;2.30;1.40;;;29.10;56.60;;;;;;5062157;28;20253;-80
2022/07/16 06:47:37;;;;;;;5.47;1.35;;;29.20;56.60;;;;;;5070310;28;20229;-75
2022/07/16 06:50:06;;;;;;;10.50;1.63;;;29.30;56.30;;;;;;5069324;28;20273;-78
2022/07/16 06:52:34;;;;;;;3.47;1.38;;;29.30;55.60;;;;;;5062000;28;20198;-78
2022/07/16 06:55:03;;;;;;;8.75;1.83;;;29.30;55.70;;;;;;5062647;28;20193;-76
2022/07/16 06:57:31;;;;;;;3.45;1.58;;;29.50;55.80;;;;;;5063302;28;20217;-78
2022/07/16 06:59:59;;;;;;;4.88;1.55;;;29.50;55.70;;;;;;5067939;28;20191;-79
2022/07/16 07:02:28;;;;;;;6.40;1.40;;;29.60;55.60;;;;;;5061770;28;20222;-79
2022/07/16 07:04:58;;;;;;;1.52;1.38;;;29.60;55.00;;;;;;5073633;28;20194;-79
2022/07/16 07:07:26;;;;;;;2.78;1.50;;;29.70;54.70;;;;;;5062316;28;20233;-79
2022/07/16 07:09:54;;;;;;;2.63;1.63;;;29.80;54.80;;;;;;5062986;28;20645;-78
2022/07/16 07:12:23;;;;;;;6.65;1.60;;;29.80;54.90;;;;;;5064398;28;20191;-81
2022/07/16 07:14:51;;;;;;;4.05;1.70;;;29.80;54.50;;;;;;5061604;28;20187;-79
2022/07/16 07:17:20;;;;;;;3.50;1.48;;;29.90;54.40;;;;;;5063642;28;20226;-78
2022/07/16 07:19:48;;;;;;;2.58;1.80;;;29.90;54.40;;;;;;5060083;28;20694;-79
2022/07/16 07:22:18;;;;;;;4.25;2.17;;;30.00;54.40;;;;;;5060174;28;20198;-77
2022/07/16 07:24:46;;;;;;;5.00;1.38;;;30.00;54.40;;;;;;5064865;28;20209;-78
2022/07/16 07:27:16;;;;;;;2.47;1.33;;;30.00;54.00;;;;;;5061660;28;20810;-80
2022/07/16 07:29:45;;;;;;;4.07;1.45;;;30.10;54.20;;;;;;5063099;28;20187;-80
2022/07/16 07:32:14;;;;;;;3.05;1.48;;;30.10;54.20;;;;;;5060459;28;20207;-79
2022/07/16 07:34:42;;;;;;;3.10;1.83;;;30.20;53.90;;;;;;5069710;28;20191;-78
2022/07/16 07:37:11;;;;;;;3.08;1.60;;;30.20;53.40;;;;;;5059067;28;21138;-81
2022/07/16 07:39:40;;;;;;;2.67;1.25;;;30.30;53.60;;;;;;5063560;28;20193;-78
2022/07/16 07:42:09;;;;;;;3.25;1.35;;;30.30;53.60;;;;;;5062845;28;20207;-79
2022/07/16 07:44:39;;;;;;;4.60;1.42;;;30.30;53.10;;;;;;5060707;28;20234;-80
2022/07/16 07:47:08;;;;;;;5.80;1.40;;;30.30;53.00;;;;;;5060182;28;20212;-76
2022/07/16 07:49:37;;;;;;;5.07;1.63;;;30.40;53.00;;;;;;5061950;28;20469;-76
2022/07/16 07:52:12;;;;;;;2.45;1.60;;;30.40;52.80;;;;;;5062375;28;20205;-79
2022/07/16 07:54:42;;;;;;;3.45;1.58;;;30.40;53.00;;;;;;5061612;28;20645;-77
2022/07/16 07:57:10;;;;;;;2.80;1.33;;;30.40;52.90;;;;;;5062645;28;20194;-79
2022/07/16 07:59:39;;;;;;;3.78;1.73;;;30.50;53.00;;;;;;5066380;28;20202;-79
2022/07/16 08:02:08;;;;;;;3.78;1.80;;;30.50;53.00;;;;;;5059321;28;20280;-77
2022/07/16 08:04:36;;;;;;;2.10;1.20;;;30.50;52.70;;;;;;5061450;28;20198;-79
2022/07/16 08:07:05;;;;;;;2.60;1.45;;;30.60;52.60;;;;;;5064475;28;20679;-79
2022/07/16 08:09:34;;;;;;;4.25;1.30;;;30.60;52.60;;;;;;5060411;28;20563;-81
2022/07/16 08:12:04;;;;;;;3.17;1.60;;;30.70;52.70;;;;;;5050782;28;20187;-79
2022/07/16 08:14:32;;;;;;;3.75;1.35;;;30.70;52.70;;;;;;5046540;28;20199;-78
2022/07/16 08:17:01;;;;;;;1.88;1.33;;;30.70;52.60;;;;;;5059011;28;20202;-76
2022/07/16 08:19:31;;;;;;;3.10;1.63;;;30.80;52.40;;;;;;5062708;28;20194;-79
2022/07/16 08:22:00;;;;;;;3.83;1.73;;;30.80;52.60;;;;;;5061791;28;20198;-79
2022/07/16 08:27:18;;;;;;;4.85;1.60;;;30.90;52.40;;;;;;5063158;28;20218;-78
2022/07/16 08:29:46;;;;;;;4.03;1.58;;;30.90;52.20;;;;;;5064380;28;20704;-79
2022/07/16 08:32:15;;;;;;;3.20;1.52;;;31.00;52.20;;;;;;5074778;28;20825;-79
2022/07/16 08:34:44;;;;;;;3.38;1.67;;;31.00;52.20;;;;;;5069405;28;20285;-80
2022/07/16 08:37:13;;;;;;;4.38;1.50;;;31.10;52.30;;;;;;5062186;28;20200;-77
2022/07/16 08:39:42;;;;;;;4.63;1.65;;;31.10;52.20;;;;;;5055364;28;20205;-76
2022/07/16 08:42:12;;;;;;;2.45;1.60;;;31.20;52.10;;;;;;5070037;28;20867;-78
2022/07/16 08:44:57;;;;;;;3.80;1.65;;;31.20;52.10;;;;;;5065874;28;20222;-80
2022/07/16 08:47:39;;;;;;;4.80;1.52;;;31.20;51.80;;;;;;5065638;28;20253;-83
2022/07/16 08:50:14;;;;;;;3.58;1.58;;;31.30;52.00;;;;;;5060843;28;20189;-82
2022/07/16 08:52:48;;;;;;;2.30;1.50;;;31.30;52.00;;;;;;5069414;28;21687;-77
2022/07/16 08:55:28;;;;;;;3.00;1.67;;;31.40;51.20;;;;;;5066678;28;20212;-81
2022/07/16 08:58:00;;;;;;;5.47;1.60;;;31.40;50.90;;;;;;5058729;28;20214;-79
2022/07/16 09:00:30;;;;;;;1.70;1.55;;;31.40;51.30;;;;;;5060607;28;20209;-79
2022/07/16 09:03:01;;;;;;;6.22;1.80;;;31.50;51.40;;;;;;5068800;28;20228;-77
2022/07/16 09:05:34;;;;;;;2.35;1.58;;;31.50;51.40;;;;;;5064066;28;20277;-78
2022/07/16 09:08:04;;;;;;;3.30;1.60;;;31.60;51.30;;;;;;5054930;28;20440;-81
2022/07/16 09:10:39;;;;;;;2.60;1.40;;;31.70;51.20;;;;;;5067469;28;20198;-82
2022/07/16 09:13:15;;;;;;;2.35;1.70;;;31.70;51.00;;;;;;5070343;28;20197;-80
2022/07/16 09:15:46;;;;;;;2.60;1.40;;;31.70;50.90;;;;;;5080353;28;20198;-80
2022/07/16 09:18:21;;;;;;;2.53;1.70;;;31.70;50.70;;;;;;5059589;28;20260;-80
2022/07/16 09:20:52;;;;;;;3.42;1.67;;;31.80;50.90;;;;;;5062326;28;20670;-77
2022/07/16 09:23:29;;;;;;;2.08;1.35;;;31.80;50.80;;;;;;5070379;28;20202;-82
2022/07/16 09:26:14;;;;;;;6.25;1.80;;;31.90;50.90;;;;;;5061513;28;20213;-79
2022/07/16 09:28:47;;;;;;;4.40;1.80;;;31.90;50.80;;;;;;5062811;28;20678;-78
2022/07/16 09:31:40;;;;;;;3.33;2.20;;;32.00;50.50;;;;;;5065920;28;20225;-80
2022/07/16 09:34:19;;;;;;;3.25;1.75;;;32.00;50.70;;;;;;5067074;28;20199;-79
2022/07/16 09:37:00;;;;;;;3.53;1.98;;;32.00;50.60;;;;;;5056022;28;20198;-80
2022/07/16 09:39:34;;;;;;;5.10;1.80;;;32.10;50.40;;;;;;5063115;28;20706;-81
2022/07/16 09:42:03;;;;;;;2.95;1.60;;;32.10;50.50;;;;;;5057156;28;20611;-78
2022/07/16 09:44:44;;;;;;;5.68;1.85;;;32.10;51.00;;;;;;5058896;28;20907;-81
2022/07/16 09:47:22;;;;;;;5.80;1.65;;;32.20;50.30;;;;;;5060077;28;20226;-78
2022/07/16 09:49:53;;;;;;;4.40;1.52;;;32.30;50.10;;;;;;5056773;28;20790;-81
2022/07/16 09:52:30;;;;;;;2.55;1.73;;;32.30;50.10;;;;;;5062038;28;20191;-78
2022/07/16 09:55:13;;;;;;;3.05;1.55;;;32.30;50.00;;;;;;5058705;28;20199;-81
2022/07/16 09:57:50;;;;;;;4.18;2.00;;;32.30;50.20;;;;;;5072142;28;20791;-79
2022/07/16 10:00:18;;;;;;;3.28;1.67;;;32.40;50.00;;;;;;5058070;28;20571;-79
2022/07/16 10:02:49;;;;;;;5.03;2.65;;;32.40;49.90;;;;;;5065141;28;20194;-79
2022/07/16 10:05:18;;;;;;;5.20;2.03;;;32.40;50.00;;;;;;5057905;28;20198;-79
2022/07/16 10:07:52;;;;;;;6.25;3.58;;;32.50;49.80;;;;;;5057032;28;20831;-81
2022/07/16 10:10:21;;;;;;;6.93;3.00;;;32.50;49.80;;;;;;5071632;28;20198;-80
2022/07/16 10:13:04;;;;;;;4.38;1.80;;;32.60;50.00;;;;;;5064132;28;20199;-80
2022/07/16 10:15:35;;;;;;;3.05;1.77;;;32.70;50.00;;;;;;5066054;28;20221;-80
2022/07/16 10:18:49;;;;;;;4.50;1.70;;;32.70;49.80;;;;;;5068681;28;20194;-81
2022/07/16 10:21:20;;;;;;;2.47;1.70;;;32.80;49.60;;;;;;5063247;28;20192;-77
2022/07/16 10:24:05;;;;;;;2.95;1.88;;;32.90;49.60;;;;;;5063945;28;20272;-79
2022/07/16 10:26:35;;;;;;;4.32;2.20;;;32.90;49.50;;;;;;5066452;28;20244;-80
2022/07/16 10:29:04;;;;;;;5.03;1.85;;;33.00;49.20;;;;;;5067115;28;20313;-79
2022/07/16 10:31:41;;;;;;;4.70;1.70;;;33.00;49.00;;;;;;5068563;28;20212;-77
2022/07/16 10:34:41;;;;;;;3.53;1.90;;;33.10;48.60;;;;;;5066080;28;20208;-78
2022/07/16 10:37:25;;;;;;;5.57;1.83;;;33.10;48.60;;;;;;5064520;28;20202;-80
2022/07/16 10:40:10;;;;;;;7.03;2.22;;;33.20;48.80;;;;;;5066284;28;20178;-77
2022/07/16 10:42:39;;;;;;;4.55;1.90;;;33.30;48.70;;;;;;5056160;28;20285;-78
2022/07/16 10:45:09;;;;;;;2.80;1.83;;;33.30;48.50;;;;;;5062981;28;20244;-79
2022/07/16 10:47:57;;;;;;;4.57;1.65;;;33.30;48.60;;;;;;5062934;28;20222;-80
2022/07/16 10:50:27;;;;;;;3.50;1.95;;;33.40;48.40;;;;;;5070734;28;20191;-80
2022/07/16 10:52:57;;;;;;;2.33;1.55;;;33.40;48.30;;;;;;5063643;28;20205;-80
2022/07/16 10:55:36;;;;;;;6.90;1.80;;;33.50;48.60;;;;;;5074049;28;20551;-82
2022/07/16 10:58:05;;;;;;;4.18;1.70;;;33.50;48.50;;;;;;5067737;28;20198;-80
2022/07/16 11:00:33;;;;;;;2.67;1.65;;;33.60;48.50;;;;;;5059474;28;20285;-78
2022/07/16 11:03:04;;;;;;;8.88;1.77;;;33.60;48.30;;;;;;5064179;28;20251;-81
2022/07/16 11:05:47;;;;;;;3.92;1.73;;;33.60;47.50;;;;;;5068008;28;20198;-81
2022/07/16 11:08:16;;;;;;;2.67;1.70;;;33.60;47.70;;;;;;5058118;28;20230;-80
2022/07/16 11:10:45;;;;;;;3.30;2.08;;;33.70;47.50;;;;;;5069448;28;20202;-82
2022/07/16 11:13:16;;;;;;;2.78;1.80;;;33.70;47.50;;;;;;5057792;28;20738;-81
2022/07/16 11:15:45;;;;;;;5.70;1.98;;;33.80;47.80;;;;;;5065467;28;20198;-80
2022/07/16 11:18:16;;;;;;;3.20;1.83;;;33.80;47.40;;;;;;5058731;28;20210;-81
2022/07/16 11:20:48;;;;;;;5.90;2.10;;;33.90;47.50;;;;;;5062959;28;20202;-80
2022/07/16 11:23:18;;;;;;;3.53;1.80;;;33.90;47.50;;;;;;5063033;28;20187;-81
2022/07/16 11:26:03;;;;;;;4.82;1.98;;;34.00;47.50;;;;;;5070055;28;20212;-81
2022/07/16 11:28:32;;;;;;;6.45;1.90;;;34.00;48.10;;;;;;5053167;28;20217;-83
2022/07/16 11:31:05;;;;;;;4.55;1.77;;;34.10;47.40;;;;;;5059663;28;20186;-80
2022/07/16 11:33:50;;;;;;;7.82;2.28;;;34.10;47.50;;;;;;5058659;28;20194;-81
2022/07/16 11:36:20;;;;;;;5.32;2.05;;;34.30;47.60;;;;;;5060464;28;20900;-77
2022/07/16 11:38:49;;;;;;;6.40;1.85;;;34.30;47.00;;;;;;5059803;28;20186;-79
2022/07/16 11:41:18;;;;;;;6.22;2.00;;;34.40;46.80;;;;;;5057945;28;20199;-83
2022/07/16 11:43:47;;;;;;;2.05;1.50;;;34.50;46.80;;;;;;5060441;28;20198;-80
2022/07/16 11:46:23;;;;;;;4.03;1.88;;;34.50;46.90;;;;;;5069582;28;20257;-80
2022/07/16 11:48:52;;;;;;;2.72;1.70;;;34.60;46.30;;;;;;5064190;28;20206;-80
2022/07/16 11:51:22;;;;;;;4.57;1.90;;;34.60;46.00;;;;;;5061514;28;20852;-82
2022/07/16 11:53:52;;;;;;;2.63;1.80;;;34.60;46.20;;;;;;5060694;28;20241;-82
2022/07/16 11:56:32;;;;;;;5.35;1.90;;;34.70;46.50;;;;;;5060933;28;20216;-77
2022/07/16 11:59:01;;;;;;;2.70;1.85;;;34.70;46.40;;;;;;5057860;28;20192;-80
2022/07/16 12:01:37;;;;;;;6.45;1.80;;;34.70;46.50;;;;;;5062953;28;20229;-81
2022/07/16 12:04:06;;;;;;;7.18;2.20;;;34.70;46.30;;;;;;5053383;28;20196;-82
2022/07/16 12:06:37;;;;;;;7.22;2.65;;;34.70;46.00;;;;;;5061175;28;20920;-80
2022/07/16 12:09:06;;;;;;;5.95;2.08;;;34.60;46.20;;;;;;5064482;28;20202;-79
2022/07/16 12:11:35;;;;;;;6.30;1.95;;;34.60;46.30;;;;;;5067789;28;20190;-78
2022/07/16 12:14:05;;;;;;;5.65;1.75;;;34.60;46.40;;;;;;5062872;28;20290;-80
2022/07/16 12:16:34;;;;;;;4.47;1.90;;;34.50;46.20;;;;;;5062456;28;20260;-79
2022/07/16 12:19:08;;;;;;;4.82;2.20;;;34.40;46.30;;;;;;5066372;28;20361;-80
2022/07/16 12:21:39;;;;;;;2.40;1.90;;;34.30;46.10;;;;;;5012895;28;20608;-79
2022/07/16 12:24:08;;;;;;;4.07;1.98;;;34.20;46.00;;;;;;5072005;28;20217;-79
2022/07/16 12:26:41;;;;;;;4.18;1.63;;;34.10;46.30;;;;;;5061521;28;20858;-82
2022/07/16 12:29:11;;;;;;;7.63;2.72;;;34.00;46.90;;;;;;5070188;28;20301;-83
2022/07/16 12:31:41;;;;;;;5.50;2.03;;;34.00;48.10;;;;;;5061338;28;20252;-81
2022/07/16 12:34:09;;;;;;;7.60;2.35;;;33.80;49.30;;;;;;5059852;28;20643;-82
2022/07/16 12:36:41;;;;;;;3.92;2.75;;;33.60;50.70;;;;;;5058048;28;20198;-82
2022/07/16 12:39:11;;;;;;;13.60;2.97;;;33.50;52.20;;;;;;5073324;28;20205;-83
2022/07/16 12:41:42;;;;;;;9.82;2.72;;;33.30;52.50;;;;;;5064354;28;20221;-85
2022/07/16 12:44:13;;;;;;;5.65;2.65;;;33.10;52.80;;;;;;5063286;28;20833;-81
2022/07/16 12:46:44;;;;;;;4.43;2.80;;;33.00;53.70;;;;;;5062744;28;20221;-80
2022/07/16 12:49:22;;;;;;;8.27;3.75;;;32.70;55.20;;;;;;5061099;28;20214;-81
2022/07/16 12:51:55;;;;;;;5.57;2.58;;;32.50;58.40;;;;;;5069919;28;20184;-80
2022/07/16 12:54:24;;;;;;;9.35;2.85;;;32.10;58.50;;;;;;5056733;28;20240;-82
2022/07/16 12:59:39;;;;;;;4.85;2.17;;;31.20;59.50;;;;;;5070494;28;20848;-82
2022/07/16 13:02:07;;;;;;;5.25;2.45;;;30.80;58.90;;;;;;5057056;28;20910;-80
2022/07/16 13:04:36;;;;;;;6.43;2.60;;;30.40;60.20;;;;;;5060045;28;21029;-77
2022/07/16 13:07:06;;;;;;;7.80;2.65;;;30.10;60.70;;;;;;5053490;28;20203;-79
2022/07/16 13:09:34;;;;;;;4.38;2.28;;;29.90;61.20;;;;;;5058508;28;20716;-78
2022/07/16 13:12:03;;;;;;;4.05;2.33;;;29.70;62.20;;;;;;5061173;28;20695;-78
2022/07/16 13:14:32;;;;;;;3.70;2.75;;;29.50;62.20;;;;;;5064635;28;20774;-79
2022/07/16 13:17:00;;;;;;;6.13;2.88;;;29.30;63.00;;;;;;5066851;28;20205;-79